Pagrindinis puslapis
METAR-TAF:

METAR-TAF

Oro uostai :

Oro pajėgų bazė

Santosas, San Paulas, Brazilija

platuma: 23-56S, ilguma: 046-18W, Aukštis: 3 m

Dabartinis oras

Ataskaita buvo paskelbta 1 valandą ir 10 minutes, ne 21:00 UTC
Vėjas 3 kt iš Pietų
Temperatūra 28°C
Drėgmė 84%
Slėgis 1008 hPa
Matomumas: 8000 m
Mažai debesys ne aukštis 3500 ft
Su prošvaistėmis ne aukštis 5100 ft

METAR: SBST 192100Z 18003KT 8000 FEW035 BKN051 28/25 Q1008

Laikas: 19:10 (22:10 UTC)


TAF: trūkstamas

Orai ataskaitas ir orų prognozės (METAR, TAF).

turimą stotys yra geltonos ir raudonos taškus žemėlapyje.

Perkelti pele per norėdami pamatyti stoties vardą.

Tada spustelėkite, norėdami matyti oro stebėjimo ir prognozės.

Norėdami pakeisti žemėlapį: spustelėkite ant žalios mygtukų su juodo kryžiaus žemyn,; žalią mygtuką su brūkšneliu, jei norite nutolinti; arba žalių rodyklių gretimoms žemėlapius.


METAR-TAF: